Simcha — PE7688 — position and weather

sailwx.info

Track history (hours):
 
Tides and Currents Weather Stations Pressure Air Temp Water Temp Dewpoint Dewpoint Depression Visibility Wind Speed Wind Dir Waves Ship Positions

Simcha

Last reported at 2017-Nov-17 08:23 UTC. Time now 2017-Nov-24 18:33 UTC.
Position N 50°54' E 006°59'.

Length 110 m.

MMSI: 244780014.

Date/timePositionNaut miles runAvg speedWind from/ knotsBaromVisibWave heightAir tempDewpointWater temp
2017-Nov-17 08:23N 50°54' E 006°59'2 4.6
2017-Nov-17 08:00N 50°56' E 006°58'30 1.6
2017-Nov-16 13:33N 51°24' E 006°45'1 5.2
2017-Nov-16 13:27N 51°25' E 006°44'2 4.9
2017-Nov-16 13:01N 51°27' E 006°43'2 4.3
2017-Nov-16 12:31N 51°29' E 006°41'5 3.6
2017-Nov-16 11:13N 51°33' E 006°41'4 3.3
2017-Nov-16 10:01N 51°36' E 006°36'0 5.5
2017-Nov-16 09:59N 51°36' E 006°36'2 4.8
2017-Nov-16 09:30N 51°38' E 006°36'2 3.8
2017-Nov-16 09:00N 51°40' E 006°34'17 4.5
2017-Nov-16 05:20N 51°50' E 006°13'2 4.9
2017-Nov-16 05:00N 51°50' E 006°10'3 5.3
2017-Nov-16 04:31N 51°51' E 006°06'2 4.5
2017-Nov-16 04:00N 51°52' E 006°03'0 0.3
2017-Nov-16 03:30N 51°52' E 006°03'0 0.0
2017-Nov-16 03:00N 51°52' E 006°03'0 0.0
2017-Nov-16 02:31N 51°52' E 006°03'0 0.0
2017-Nov-16 02:00N 51°52' E 006°03'0 0.0
2017-Nov-16 01:30N 51°52' E 006°03'0 0.0
2017-Nov-16 01:01N 51°52' E 006°03'0 0.0
2017-Nov-16 00:30N 51°52' E 006°03'0 0.0
2017-Nov-16 00:00N 51°52' E 006°03'0 0.0
2017-Nov-15 23:31N 51°52' E 006°03'0 0.0
2017-Nov-15 23:00N 51°52' E 006°03'0 0.0
2017-Nov-15 22:30N 51°52' E 006°03'0 0.0
2017-Nov-15 21:56N 51°52' E 006°03'0 0.4
2017-Nov-15 21:30N 51°52' E 006°03'0 0.1
2017-Nov-15 20:58N 51°52' E 006°02'1 2.4
2017-Nov-15 20:30N 51°53' E 006°01'71 3.0
2017-Nov-14 20:59N 50°43' E 005°40'3 6.5
2017-Nov-14 20:30N 50°40' E 005°38'0 0.6
2017-Nov-14 20:00N 50°40' E 005°38'0 0.2
2017-Nov-14 19:28N 50°40' E 005°38'0 0.0
2017-Nov-14 19:00N 50°40' E 005°38'0 0.0
2017-Nov-14 18:30N 50°40' E 005°38'0 0.0
2017-Nov-14 18:01N 50°40' E 005°38'0 0.0
2017-Nov-14 17:30N 50°40' E 005°38'0 0.0
2017-Nov-14 17:00N 50°40' E 005°38'0 0.0
2017-Nov-14 15:55N 50°40' E 005°38'0 0.0
2017-Nov-14 15:30N 50°40' E 005°38'0 0.0
2017-Nov-14 15:00N 50°40' E 005°38'0 0.0
2017-Nov-14 14:30N 50°40' E 005°38'0 0.0
2017-Nov-14 14:00N 50°40' E 005°38'0 0.0
2017-Nov-14 13:30N 50°40' E 005°38'0 0.0
2017-Nov-14 13:00N 50°40' E 005°38'0 0.0
2017-Nov-14 12:30N 50°40' E 005°38'0 0.0
2017-Nov-14 12:00N 50°40' E 005°38'0 0.0
2017-Nov-14 11:30N 50°40' E 005°38'0 0.1
2017-Nov-14 11:01N 50°40' E 005°38'0 0.2
2017-Nov-14 10:30N 50°40' E 005°38'0 0.0
2017-Nov-14 10:00N 50°40' E 005°38'0 0.0
2017-Nov-14 09:30N 50°40' E 005°38'0 0.0
2017-Nov-14 09:00N 50°40' E 005°38'0 0.0
2017-Nov-14 08:27N 50°40' E 005°38'0 0.0
2017-Nov-14 08:00N 50°40' E 005°38'0 0.0
2017-Nov-14 07:30N 50°40' E 005°38'0 0.0
2017-Nov-14 07:00N 50°40' E 005°38'0 0.0
2017-Nov-14 06:23N 50°40' E 005°38'0 0.3
2017-Nov-14 05:50N 50°40' E 005°38'0 0.3
2017-Nov-14 05:23N 50°40' E 005°38'0 0.0
2017-Nov-14 04:55N 50°40' E 005°38'0 0.0
2017-Nov-14 04:27N 50°40' E 005°38'0 0.0
2017-Nov-14 04:00N 50°40' E 005°38'0 0.0
2017-Nov-14 03:30N 50°40' E 005°38'0 0.0
2017-Nov-14 03:00N 50°40' E 005°38'0 0.4
2017-Nov-14 02:30N 50°40' E 005°38'26 5.5
2017-Nov-13 21:43N 51°05' E 005°50'47 1.1
2017-Nov-12 04:26N 51°51' E 005°59'3 6.3
2017-Nov-12 04:01N 51°52' E 006°03'0 0.2
2017-Nov-12 03:30N 51°52' E 006°03'0 0.0
2017-Nov-12 03:00N 51°52' E 006°03'0 0.0
2017-Nov-12 02:30N 51°52' E 006°03'0 0.0
2017-Nov-12 02:00N 51°52' E 006°03'0 0.0
2017-Nov-12 01:30N 51°52' E 006°03'0 0.0
2017-Nov-12 01:00N 51°52' E 006°03'0 0.0
2017-Nov-12 00:30N 51°52' E 006°03'0 0.0
2017-Nov-12 00:00N 51°52' E 006°03'0 0.0
2017-Nov-11 23:30N 51°52' E 006°03'0 0.0
2017-Nov-11 23:00N 51°52' E 006°03'0 0.0
2017-Nov-11 22:30N 51°52' E 006°03'2 3.3
2017-Nov-11 22:00N 51°51' E 006°05'19 7.8
2017-Nov-11 19:32N 51°40' E 006°30'1 9.2
2017-Nov-11 19:28N 51°40' E 006°31'3 6.8
2017-Nov-11 18:57N 51°38' E 006°36'8 6.3
2017-Nov-11 17:40N 51°31' E 006°43'1 7.9
2017-Nov-11 17:30N 51°30' E 006°43'2 4.8
2017-Nov-11 17:00N 51°27' E 006°44'1 2.3
2017-Nov-11 16:30N 51°26' E 006°43'10 6.5
2017-Nov-11 15:01N 51°17' E 006°42'0 9.4
2017-Nov-11 15:00N 51°17' E 006°42'4 8.0
2017-Nov-11 14:30N 51°13' E 006°46'3 5.4
2017-Nov-11 14:00N 51°11' E 006°44'3 6.5
2017-Nov-11 13:30N 51°09' E 006°48'15 6.0
2017-Nov-11 11:03N 50°56' E 006°58'0 9.0
2017-Nov-11 11:00N 50°55' E 006°58'  
Track history (hours):
 
Tides and Currents Weather Stations Pressure Air Temp Water Temp Dewpoint Dewpoint Depression Visibility Wind Speed Wind Dir Waves Ship Positions

Simcha

Last reported at 2017-Nov-17 08:23 UTC. Time now 2017-Nov-24 18:33 UTC.
Position N 50°54' E 006°59'.

Length 110 m.

MMSI: 244780014.

Date/timePositionNaut miles runAvg speedWind from/ knotsBaromVisibWave heightAir tempDewpointWater temp
2017-Nov-17 08:23N 50°54' E 006°59'2 4.6
2017-Nov-17 08:00N 50°56' E 006°58'30 1.6
2017-Nov-16 13:33N 51°24' E 006°45'1 5.2
2017-Nov-16 13:27N 51°25' E 006°44'2 4.9
2017-Nov-16 13:01N 51°27' E 006°43'2 4.3
2017-Nov-16 12:31N 51°29' E 006°41'5 3.6
2017-Nov-16 11:13N 51°33' E 006°41'4 3.3
2017-Nov-16 10:01N 51°36' E 006°36'0 5.5
2017-Nov-16 09:59N 51°36' E 006°36'2 4.8
2017-Nov-16 09:30N 51°38' E 006°36'2 3.8
2017-Nov-16 09:00N 51°40' E 006°34'17 4.5
2017-Nov-16 05:20N 51°50' E 006°13'2 4.9
2017-Nov-16 05:00N 51°50' E 006°10'3 5.3
2017-Nov-16 04:31N 51°51' E 006°06'2 4.5
2017-Nov-16 04:00N 51°52' E 006°03'0 0.3
2017-Nov-16 03:30N 51°52' E 006°03'0 0.0
2017-Nov-16 03:00N 51°52' E 006°03'0 0.0
2017-Nov-16 02:31N 51°52' E 006°03'0 0.0
2017-Nov-16 02:00N 51°52' E 006°03'0 0.0
2017-Nov-16 01:30N 51°52' E 006°03'0 0.0
2017-Nov-16 01:01N 51°52' E 006°03'0 0.0
2017-Nov-16 00:30N 51°52' E 006°03'0 0.0
2017-Nov-16 00:00N 51°52' E 006°03'0 0.0
2017-Nov-15 23:31N 51°52' E 006°03'0 0.0
2017-Nov-15 23:00N 51°52' E 006°03'0 0.0
2017-Nov-15 22:30N 51°52' E 006°03'0 0.0
2017-Nov-15 21:56N 51°52' E 006°03'0 0.4
2017-Nov-15 21:30N 51°52' E 006°03'0 0.1
2017-Nov-15 20:58N 51°52' E 006°02'1 2.4
2017-Nov-15 20:30N 51°53' E 006°01'71 3.0
2017-Nov-14 20:59N 50°43' E 005°40'3 6.5
2017-Nov-14 20:30N 50°40' E 005°38'0 0.6
2017-Nov-14 20:00N 50°40' E 005°38'0 0.2
2017-Nov-14 19:28N 50°40' E 005°38'0 0.0
2017-Nov-14 19:00N 50°40' E 005°38'0 0.0
2017-Nov-14 18:30N 50°40' E 005°38'0 0.0
2017-Nov-14 18:01N 50°40' E 005°38'0 0.0
2017-Nov-14 17:30N 50°40' E 005°38'0 0.0
2017-Nov-14 17:00N 50°40' E 005°38'0 0.0
2017-Nov-14 15:55N 50°40' E 005°38'0 0.0
2017-Nov-14 15:30N 50°40' E 005°38'0 0.0
2017-Nov-14 15:00N 50°40' E 005°38'0 0.0
2017-Nov-14 14:30N 50°40' E 005°38'0 0.0
2017-Nov-14 14:00N 50°40' E 005°38'0 0.0
2017-Nov-14 13:30N 50°40' E 005°38'0 0.0
2017-Nov-14 13:00N 50°40' E 005°38'0 0.0
2017-Nov-14 12:30N 50°40' E 005°38'0 0.0
2017-Nov-14 12:00N 50°40' E 005°38'0 0.0
2017-Nov-14 11:30N 50°40' E 005°38'0 0.1
2017-Nov-14 11:01N 50°40' E 005°38'0 0.2
2017-Nov-14 10:30N 50°40' E 005°38'0 0.0
2017-Nov-14 10:00N 50°40' E 005°38'0 0.0
2017-Nov-14 09:30N 50°40' E 005°38'0 0.0
2017-Nov-14 09:00N 50°40' E 005°38'0 0.0
2017-Nov-14 08:27N 50°40' E 005°38'0 0.0
2017-Nov-14 08:00N 50°40' E 005°38'0 0.0
2017-Nov-14 07:30N 50°40' E 005°38'0 0.0
2017-Nov-14 07:00N 50°40' E 005°38'0 0.0
2017-Nov-14 06:23N 50°40' E 005°38'0 0.3
2017-Nov-14 05:50N 50°40' E 005°38'0 0.3
2017-Nov-14 05:23N 50°40' E 005°38'0 0.0
2017-Nov-14 04:55N 50°40' E 005°38'0 0.0
2017-Nov-14 04:27N 50°40' E 005°38'0 0.0
2017-Nov-14 04:00N 50°40' E 005°38'0 0.0
2017-Nov-14 03:30N 50°40' E 005°38'0 0.0
2017-Nov-14 03:00N 50°40' E 005°38'0 0.4
2017-Nov-14 02:30N 50°40' E 005°38'26 5.5
2017-Nov-13 21:43N 51°05' E 005°50'47 1.1
2017-Nov-12 04:26N 51°51' E 005°59'3 6.3
2017-Nov-12 04:01N 51°52' E 006°03'0 0.2
2017-Nov-12 03:30N 51°52' E 006°03'0 0.0
2017-Nov-12 03:00N 51°52' E 006°03'0 0.0
2017-Nov-12 02:30N 51°52' E 006°03'0 0.0
2017-Nov-12 02:00N 51°52' E 006°03'0 0.0
2017-Nov-12 01:30N 51°52' E 006°03'0 0.0
2017-Nov-12 01:00N 51°52' E 006°03'0 0.0
2017-Nov-12 00:30N 51°52' E 006°03'0 0.0
2017-Nov-12 00:00N 51°52' E 006°03'0 0.0
2017-Nov-11 23:30N 51°52' E 006°03'0 0.0
2017-Nov-11 23:00N 51°52' E 006°03'0 0.0
2017-Nov-11 22:30N 51°52' E 006°03'2 3.3
2017-Nov-11 22:00N 51°51' E 006°05'19 7.8
2017-Nov-11 19:32N 51°40' E 006°30'1 9.2
2017-Nov-11 19:28N 51°40' E 006°31'3 6.8
2017-Nov-11 18:57N 51°38' E 006°36'8 6.3
2017-Nov-11 17:40N 51°31' E 006°43'1 7.9
2017-Nov-11 17:30N 51°30' E 006°43'2 4.8
2017-Nov-11 17:00N 51°27' E 006°44'1 2.3
2017-Nov-11 16:30N 51°26' E 006°43'10 6.5
2017-Nov-11 15:01N 51°17' E 006°42'0 9.4
2017-Nov-11 15:00N 51°17' E 006°42'4 8.0
2017-Nov-11 14:30N 51°13' E 006°46'3 5.4
2017-Nov-11 14:00N 51°11' E 006°44'3 6.5
2017-Nov-11 13:30N 51°09' E 006°48'15 6.0
2017-Nov-11 11:03N 50°56' E 006°58'0 9.0
2017-Nov-11 11:00N 50°55' E 006°58'  

Dump ship's entire track history